Terminal Aerodrome Forecast
Issued by NWS

Home | Current Version | Previous Version | Text Only | Print | Product List | Glossary On
Versions: 1 2 3 4 5 6 7 8 9 10 11 12
000
FTUS44 KOUN 232341
TAFCSM
TAF
KCSM 232341Z 2400/2424 19011G18KT P6SM SKC
     FM240100 16010KT P6SM FEW250
     FM241700 20010KT P6SM SKC=

USA.gov is the U.S. government's official web portal to all federal, state and local government web resources and services.